Time;durP1;ratioP1;P1;durP2;ratioP2;P2;SDS_P1;SDS_P2;PMS_P1;PMS_P2;Temp;Humidity;BMP_temperature;BMP_pressure;BME280_temperature;BME280_humidity;BME280_pressure;Samples;Min_cycle;Max_cycle;Signal;HPM_P1;HPM_P2
2023/12/16 00:01:53;;;;;;;19.67;4.43;;;;;;;6.80;100.00;103756.53;6250344;22;20134;-83
2023/12/16 00:04:19;;;;;;;17.73;3.90;;;;;;;6.79;100.00;103749.44;6251261;22;20007;-84
2023/12/16 00:06:44;;;;;;;13.53;3.63;;;;;;;6.80;100.00;103756.53;6225023;22;20012;-84
2023/12/16 00:09:09;;;;;;;11.33;3.27;;;;;;;6.80;100.00;103744.91;6201135;22;20016;-84
2023/12/16 00:11:35;;;;;;;13.48;3.17;;;;;;;6.77;100.00;103751.38;6200066;22;20319;-84
2023/12/16 00:14:00;;;;;;;14.07;4.20;;;;;;;6.77;100.00;103756.78;6225158;22;20011;-84
2023/12/16 00:16:26;;;;;;;14.17;3.40;;;;;;;6.78;100.00;103752.25;6250282;22;20008;-84
2023/12/16 00:18:52;;;;;;;15.77;3.37;;;;;;;6.77;100.00;103759.47;6277477;22;20011;-84
2023/12/16 00:21:18;;;;;;;13.73;3.50;;;;;;;6.78;100.00;103755.81;6251075;22;20012;-84
2023/12/16 00:23:43;;;;;;;10.52;3.17;;;;;;;6.78;100.00;103757.66;6250393;22;20004;-84
2023/12/16 00:26:09;;;;;;;14.30;3.53;;;;;;;6.77;100.00;103751.38;6250524;22;20011;-84
2023/12/16 00:28:37;;;;;;;17.47;3.40;;;;;;;6.76;100.00;103747.00;6250214;22;20338;-83
2023/12/16 00:31:02;;;;;;;12.20;3.40;;;;;;;6.76;100.00;103741.59;6251191;22;20410;-84
2023/12/16 00:33:28;;;;;;;14.00;3.00;;;;;;;6.77;100.00;103743.28;6250395;22;20038;-84
2023/12/16 00:35:53;;;;;;;12.52;3.33;;;;;;;6.76;100.00;103741.59;6250615;22;20390;-84
2023/12/16 00:38:19;;;;;;;16.60;3.13;;;;;;;6.76;100.00;103744.28;6224514;22;20037;-85
2023/12/16 00:40:45;;;;;;;15.33;3.70;;;;;;;6.78;100.00;103742.31;6199787;22;20342;-84
2023/12/16 00:43:10;;;;;;;14.25;3.30;;;;;;;6.75;100.00;103745.25;6277183;22;20004;-84
2023/12/16 00:45:35;;;;;;;12.63;3.10;;;;;;;6.76;100.00;103722.69;6277282;22;20003;-85
2023/12/16 00:48:01;;;;;;;10.13;2.80;;;;;;;6.74;100.00;103721.09;6224458;22;20022;-84
2023/12/16 00:50:26;;;;;;;15.07;2.80;;;;;;;6.74;100.00;103721.09;6200117;22;20016;-83
2023/12/16 00:52:52;;;;;;;12.95;2.85;;;;;;;6.73;100.00;103722.94;6250739;22;20008;-84
2023/12/16 00:55:17;;;;;;;15.53;3.17;;;;;;;6.73;100.00;103732.84;6250024;22;20413;-84
2023/12/16 00:57:43;;;;;;;15.20;2.67;;;;;;;6.71;100.00;103738.38;6224326;22;20023;-84
2023/12/16 01:00:09;;;;;;;15.33;4.33;;;;;;;6.72;100.00;103740.09;6249523;22;20031;-83
2023/12/16 01:02:34;;;;;;;13.82;3.13;;;;;;;6.72;100.00;103726.63;6250269;22;20434;-84
2023/12/16 01:05:00;;;;;;;12.00;2.67;;;;;;;6.73;100.00;103731.03;6249870;22;20015;-84
2023/12/16 01:07:25;;;;;;;10.38;2.92;;;;;;;6.73;100.00;103725.66;6250934;22;20012;-84
2023/12/16 01:09:51;;;;;;;12.10;3.07;;;;;;;6.71;100.00;103738.38;6224726;22;20035;-84
2023/12/16 01:12:16;;;;;;;12.95;2.83;;;;;;;6.72;100.00;103729.31;6275476;22;20031;-84
2023/12/16 01:14:42;;;;;;;15.17;3.33;;;;;;;6.73;100.00;103744.53;6224672;22;20044;-84
2023/12/16 01:17:07;;;;;;;12.17;2.63;;;;;;;6.71;100.00;103732.97;6250286;22;20390;-84
2023/12/16 01:19:33;;;;;;;8.77;2.60;;;;;;;6.72;100.00;103734.72;6224238;22;20453;-89
2023/12/16 01:21:58;;;;;;;17.70;3.33;;;;;;;6.71;100.00;103732.97;6225121;22;20008;-84
2023/12/16 01:24:23;;;;;;;12.85;3.10;;;;;;;6.71;100.00;103732.97;6199138;22;20334;-84
2023/12/16 01:26:49;;;;;;;17.53;3.20;;;;;;;6.72;100.00;103740.09;6224350;22;20012;-84
2023/12/16 01:29:14;;;;;;;14.27;2.77;;;;;;;6.73;100.00;103733.75;6250151;22;20453;-84
2023/12/16 01:31:40;;;;;;;17.40;2.60;;;;;;;6.71;100.00;103741.06;6250692;22;20036;-84
2023/12/16 01:34:11;;;;;;;11.73;2.63;;;;;;;6.72;100.00;103729.31;6224726;22;20038;-84
2023/12/16 01:36:37;;;;;;;11.77;2.90;;;;;;;6.71;100.00;103727.59;6251408;22;20258;-84
2023/12/16 01:39:03;;;;;;;14.23;2.22;;;;;;;6.70;100.00;103728.56;6226537;22;20015;-83
2023/12/16 01:41:28;;;;;;;12.63;2.92;;;;;;;6.68;100.00;103723.28;6251975;22;20102;-84
2023/12/16 01:43:53;;;;;;;13.17;3.30;;;;;;;6.68;100.00;103709.78;6226452;22;20008;-84
2023/12/16 01:46:21;;;;;;;15.98;3.40;;;;;;;6.66;100.00;103714.44;6201871;22;20253;-84
2023/12/16 01:48:47;;;;;;;12.68;2.90;;;;;;;6.64;100.00;103723.63;6252557;22;20061;-84
2023/12/16 01:51:13;;;;;;;13.93;2.90;;;;;;;6.65;100.00;103725.38;6226308;22;20035;-84
2023/12/16 01:53:39;;;;;;;16.00;3.67;;;;;;;6.60;100.00;103720.34;6251313;22;20029;-84
2023/12/16 01:56:06;;;;;;;8.83;2.83;;;;;;;6.58;100.00;103716.88;6251653;22;20016;-84
2023/12/16 01:58:33;;;;;;;13.57;3.05;;;;;;;6.54;100.00;103728.03;6226578;22;20015;-84
2023/12/16 02:00:58;;;;;;;11.32;3.05;;;;;;;6.54;100.00;103731.59;6278798;22;20031;-84
2023/12/16 02:03:27;;;;;;;14.23;3.10;;;;;;;6.51;100.00;103729.16;6251379;22;20422;-84
2023/12/16 02:05:52;;;;;;;16.88;2.80;;;;;;;6.48;100.00;103721.25;6251721;22;20008;-84
2023/12/16 02:08:18;;;;;;;10.90;2.80;;;;;;;6.46;100.00;103723.22;6251246;22;20062;-84
2023/12/16 02:10:43;;;;;;;12.65;3.00;;;;;;;6.47;100.00;103722.25;6252020;22;20007;-84
2023/12/16 02:13:09;;;;;;;12.70;2.90;;;;;;;6.42;100.00;103721.72;6251535;22;20323;-84
2023/12/16 02:15:35;;;;;;;11.00;3.00;;;;;;;6.41;100.00;103718.19;6251815;22;20023;-84
2023/12/16 02:18:00;;;;;;;10.87;3.37;;;;;;;6.38;100.00;103715.72;6201295;22;20393;-84
2023/12/16 02:20:29;;;;;;;10.43;2.70;;;;;;;6.31;100.00;103725.25;6226059;22;20496;-84
2023/12/16 02:22:54;;;;;;;12.27;2.97;;;;;;;6.24;100.00;103719.47;6251506;22;20521;-84
2023/12/16 02:25:20;;;;;;;14.80;2.80;;;;;;;6.20;100.00;103719.81;6278166;22;20031;-84
2023/12/16 02:27:45;;;;;;;12.83;3.00;;;;;;;6.08;100.00;103719.78;6278157;22;20376;-85
2023/12/16 02:30:12;;;;;;;8.82;2.63;;;;;;;6.02;100.00;103714.81;6250810;22;20099;-83
2023/12/16 02:32:38;;;;;;;15.20;3.03;;;;;;;5.97;100.00;103714.31;6278066;22;20004;-83
2023/12/16 02:35:04;;;;;;;12.50;2.80;;;;;;;5.96;100.00;103712.56;6225429;22;20028;-83
2023/12/16 02:37:30;;;;;;;9.95;2.70;;;;;;;5.91;100.00;103720.13;6278363;22;20097;-83
2023/12/16 02:39:55;;;;;;;11.30;3.08;;;;;;;5.88;100.00;103717.69;6279047;22;20394;-83
2023/12/16 02:42:21;;;;;;;14.73;3.00;;;;;;;5.83;100.00;103723.41;6251083;22;20016;-82
2023/12/16 02:44:46;;;;;;;10.53;2.70;;;;;;;5.76;100.00;103723.00;6225949;22;20441;-82
2023/12/16 02:47:11;;;;;;;11.73;2.78;;;;;;;5.72;100.00;103737.66;6250675;22;20061;-83
2023/12/16 02:49:37;;;;;;;9.47;2.50;;;;;;;5.70;100.00;103736.91;6251253;22;20012;-83
2023/12/16 02:52:03;;;;;;;10.73;2.60;;;;;;;5.71;100.00;103743.16;6200350;22;20433;-83
2023/12/16 02:54:28;;;;;;;18.48;3.03;;;;;;;5.71;100.00;103733.22;6278181;22;20058;-83
2023/12/16 02:56:53;;;;;;;14.57;2.78;;;;;;;5.70;100.00;103727.94;6250988;22;20011;-83
2023/12/16 02:59:19;;;;;;;5.80;2.70;;;;;;;5.72;100.00;103732.25;6277811;22;20015;-83
2023/12/16 03:01:44;;;;;;;12.07;3.40;;;;;;;5.74;100.00;103730.34;6251946;22;20406;-83
2023/12/16 03:04:10;;;;;;;12.03;2.90;;;;;;;5.76;100.00;103724.84;6200907;22;20011;-83
2023/12/16 03:06:41;;;;;;;12.43;2.78;;;;;;;5.77;100.00;103718.44;6250929;22;20091;-83
2023/12/16 03:09:06;;;;;;;9.77;2.88;;;;;;;5.74;100.00;103726.75;6226906;22;20023;-83
2023/12/16 03:11:31;;;;;;;12.80;2.93;;;;;;;5.73;100.00;103719.66;6251751;22;20008;-83
2023/12/16 03:13:57;;;;;;;12.93;3.08;;;;;;;5.69;100.00;103721.72;6200521;22;20254;-84
2023/12/16 03:16:22;;;;;;;14.37;3.20;;;;;;;5.65;100.00;103719.38;6250608;22;20105;-83
2023/12/16 03:18:48;;;;;;;13.73;3.77;;;;;;;5.61;100.00;103716.91;6226276;22;20012;-83
2023/12/16 03:21:13;;;;;;;13.87;3.07;;;;;;;5.62;100.00;103723.13;6200510;22;20487;-83
2023/12/16 03:23:39;;;;;;;13.20;2.73;;;;;;;5.63;100.00;103720.31;6250799;22;20084;-83
2023/12/16 03:26:04;;;;;;;17.92;3.50;;;;;;;5.66;100.00;103713.84;6225961;22;20418;-83
2023/12/16 03:28:32;;;;;;;11.67;3.10;;;;;;;5.67;100.00;103720.09;6250855;22;20016;-83
2023/12/16 03:30:58;;;;;;;11.98;3.15;;;;;;;5.69;100.00;103704.69;6250716;22;20377;-83
2023/12/16 03:33:23;;;;;;;15.87;3.43;;;;;;;5.70;100.00;103714.47;6225385;22;20099;-84
2023/12/16 03:35:49;;;;;;;14.80;3.13;;;;;;;5.70;100.00;103717.19;6225183;22;20081;-83
2023/12/16 03:38:14;;;;;;;17.37;2.97;;;;;;;5.70;100.00;103718.06;6225496;22;20087;-83
2023/12/16 03:40:39;;;;;;;10.80;3.38;;;;;;;5.72;100.00;103715.25;6277747;22;20061;-83
2023/12/16 03:43:05;;;;;;;13.83;3.27;;;;;;;5.74;100.00;103716.88;6225923;22;20015;-83
2023/12/16 03:45:30;;;;;;;15.53;3.37;;;;;;;5.78;100.00;103726.41;6225117;22;20483;-83
2023/12/16 03:47:55;;;;;;;10.73;3.10;;;;;;;5.78;100.00;103726.41;6251131;22;20011;-83
2023/12/16 03:50:21;;;;;;;13.20;3.40;;;;;;;5.79;100.00;103724.59;6225539;22;20047;-83
2023/12/16 03:52:46;;;;;;;12.40;3.30;;;;;;;5.86;100.00;103730.38;6225219;22;20456;-83
2023/12/16 03:55:12;;;;;;;15.10;3.15;;;;;;;5.91;100.00;103733.63;6277631;22;20011;-83
2023/12/16 03:57:37;;;;;;;13.57;3.33;;;;;;;5.90;100.00;103730.03;6224633;22;20026;-83
2023/12/16 04:00:03;;;;;;;13.67;2.83;;;;;;;5.90;100.00;103727.34;6250133;22;20062;-83
2023/12/16 04:02:29;;;;;;;17.40;2.83;;;;;;;5.95;100.00;103725.19;6224994;22;20035;-83
2023/12/16 04:04:54;;;;;;;12.27;2.97;;;;;;;5.95;100.00;103727.03;6250634;22;20011;-83
2023/12/16 04:07:22;;;;;;;14.27;3.23;;;;;;;5.99;100.00;103720.44;6250161;22;20012;-82
2023/12/16 04:09:48;;;;;;;15.25;3.42;;;;;;;6.02;100.00;103732.84;6250596;22;20019;-82
2023/12/16 04:12:17;;;;;;;12.93;2.80;;;;;;;6.04;100.00;103726.38;6250697;22;20011;-83
2023/12/16 04:14:42;;;;;;;17.75;3.30;;;;;;;6.07;100.00;103726.13;6250674;22;20083;-83
2023/12/16 04:17:08;;;;;;;13.57;3.13;;;;;;;6.09;100.00;103734.94;6200636;22;20487;-83
2023/12/16 04:19:33;;;;;;;16.57;3.23;;;;;;;6.15;100.00;103730.94;6224995;22;20015;-83
2023/12/16 04:21:59;;;;;;;10.18;2.72;;;;;;;6.15;100.00;103723.69;6224836;22;20008;-83
2023/12/16 04:24:24;;;;;;;18.13;3.35;;;;;;;6.17;100.00;103712.84;6250501;22;20007;-83
2023/12/16 04:26:50;;;;;;;16.17;3.13;;;;;;;6.16;100.00;103721.88;6251281;22;20397;-83
2023/12/16 04:29:16;;;;;;;9.65;2.78;;;;;;;6.17;100.00;103718.22;6250252;22;20102;-83
2023/12/16 04:31:41;;;;;;;14.07;3.70;;;;;;;6.18;100.00;103716.38;6199568;22;20011;-83
2023/12/16 04:34:07;;;;;;;11.57;3.08;;;;;;;6.16;100.00;103719.19;6275814;22;20315;-83
2023/12/16 04:36:33;;;;;;;15.70;3.55;;;;;;;6.14;100.00;103723.81;6250253;22;20077;-84
2023/12/16 04:38:59;;;;;;;16.17;3.23;;;;;;;6.10;100.00;103722.34;6275720;22;20010;-83
2023/12/16 04:41:25;;;;;;;16.20;3.33;;;;;;;6.05;100.00;103709.19;6250093;22;20537;-83
2023/12/16 04:43:51;;;;;;;14.70;3.10;;;;;;;6.08;100.00;103709.00;6250401;22;20039;-83
2023/12/16 04:46:23;;;;;;;14.73;3.08;;;;;;;6.02;100.00;103711.28;6224950;22;20083;-84
2023/12/16 04:48:48;;;;;;;17.58;4.35;;;;;;;5.97;100.00;103708.94;6276845;22;20012;-83
2023/12/16 04:51:14;;;;;;;15.93;3.37;;;;;;;5.99;100.00;103709.66;6225157;22;20536;-83
2023/12/16 04:53:40;;;;;;;10.23;2.90;;;;;;;5.96;100.00;103712.56;6250547;22;20015;-83
2023/12/16 04:56:06;;;;;;;14.57;3.50;;;;;;;5.91;100.00;103707.50;6225839;22;20012;-83
2023/12/16 04:58:32;;;;;;;16.00;2.85;;;;;;;5.90;100.00;103708.47;6199872;22;20015;-83
2023/12/16 05:00:57;;;;;;;14.50;3.15;;;;;;;5.88;100.00;103704.19;6224831;22;20447;-83
2023/12/16 05:03:23;;;;;;;18.80;3.23;;;;;;;5.85;100.00;103707.97;6199585;22;20098;-83
2023/12/16 05:05:48;;;;;;;12.73;3.20;;;;;;;5.82;100.00;103707.31;6250241;22;20046;-83
2023/12/16 05:08:14;;;;;;;14.73;3.20;;;;;;;5.74;100.00;103713.28;6250253;22;20065;-83
2023/12/16 05:10:40;;;;;;;12.97;2.87;;;;;;;5.77;100.00;103715.75;6226006;22;20008;-83
2023/12/16 05:13:10;;;;;;;14.07;3.28;;;;;;;5.74;100.00;103713.28;6252402;22;20414;-83
2023/12/16 05:15:38;;;;;;;16.05;3.50;;;;;;;5.67;100.00;103715.59;6252071;22;20003;-83
2023/12/16 05:18:05;;;;;;;18.15;3.63;;;;;;;5.62;100.00;103712.34;6226913;22;20023;-83
2023/12/16 05:20:31;;;;;;;9.00;2.22;;;;;;;5.58;100.00;103718.94;6227348;22;20004;-83
2023/12/16 05:22:56;;;;;;;16.48;3.60;;;;;;;5.55;100.00;103713.78;6278727;22;20008;-83
2023/12/16 05:25:22;;;;;;;14.57;3.00;;;;;;;5.56;100.00;103719.03;6226804;22;20036;-83
2023/12/16 05:27:47;;;;;;;16.43;3.07;;;;;;;5.55;100.00;103727.25;6226864;22;20043;-83
2023/12/16 05:30:13;;;;;;;10.83;2.47;;;;;;;5.57;100.00;103728.84;6226284;22;20019;-83
2023/12/16 05:32:38;;;;;;;18.08;3.40;;;;;;;5.49;100.00;103727.69;6279005;22;20035;-83
2023/12/16 05:35:04;;;;;;;14.13;3.05;;;;;;;5.45;100.00;103725.22;6252197;22;20065;-83
2023/12/16 05:37:29;;;;;;;16.38;3.20;;;;;;;5.43;100.00;103726.28;6226883;22;20015;-83
2023/12/16 05:39:55;;;;;;;17.25;3.17;;;;;;;5.40;100.00;103730.09;6226666;22;20007;-83
2023/12/16 05:42:20;;;;;;;10.43;2.83;;;;;;;5.37;100.00;103724.06;6226596;22;20054;-83
2023/12/16 05:44:46;;;;;;;16.83;2.90;;;;;;;5.35;100.00;103731.41;6251676;22;20011;-83
2023/12/16 05:47:14;;;;;;;11.60;2.50;;;;;;;5.36;100.00;103735.78;6251575;22;20365;-83
2023/12/16 05:49:39;;;;;;;13.20;2.85;;;;;;;5.32;100.00;103728.94;6278751;22;20377;-83
2023/12/16 05:52:05;;;;;;;18.87;3.07;;;;;;;5.28;100.00;103741.72;6252501;22;20015;-82
2023/12/16 05:54:31;;;;;;;11.25;2.65;;;;;;;5.25;100.00;103732.03;6251569;22;20007;-83
2023/12/16 05:56:56;;;;;;;17.57;2.80;;;;;;;5.22;100.00;103723.31;6252049;22;20054;-83
2023/12/16 05:59:21;;;;;;;12.83;2.90;;;;;;;5.17;100.00;103730.88;6226459;22;20039;-83
2023/12/16 06:01:47;;;;;;;11.80;2.63;;;;;;;5.15;100.00;103719.34;6278775;22;20055;-83
2023/12/16 06:04:13;;;;;;;14.63;3.42;;;;;;;5.10;100.00;103708.91;6227226;22;20022;-83
2023/12/16 06:06:39;;;;;;;13.70;3.03;;;;;;;5.06;100.00;103705.59;6251231;22;20026;-83
2023/12/16 06:09:04;;;;;;;13.37;2.53;;;;;;;5.04;100.00;103722.81;6226512;22;20436;-83
2023/12/16 06:11:29;;;;;;;16.02;3.90;;;;;;;5.04;100.00;103720.13;6225662;22;20019;-83
2023/12/16 06:13:55;;;;;;;13.10;3.20;;;;;;;5.04;100.00;103729.03;6201498;22;20322;-85
2023/12/16 06:16:21;;;;;;;18.33;3.40;;;;;;;5.02;100.00;103733.69;6201249;22;20015;-83
2023/12/16 06:18:49;;;;;;;15.30;3.17;;;;;;;5.02;100.00;103736.38;6278957;22;20058;-83
2023/12/16 06:21:14;;;;;;;17.33;3.88;;;;;;;5.00;100.00;103732.06;6251738;22;20012;-83
2023/12/16 06:23:40;;;;;;;17.50;3.05;;;;;;;5.03;100.00;103731.84;6201123;22;20011;-83
2023/12/16 06:26:05;;;;;;;15.97;2.97;;;;;;;5.03;100.00;103724.63;6279051;22;20008;-83
2023/12/16 06:28:31;;;;;;;16.88;2.72;;;;;;;5.00;100.00;103724.84;6278930;22;20104;-83
2023/12/16 06:30:56;;;;;;;12.93;3.47;;;;;;;5.03;100.00;103729.16;6226146;22;20039;-83
2023/12/16 06:33:22;;;;;;;14.80;3.10;;;;;;;4.99;100.00;103725.81;6278629;22;20405;-83
2023/12/16 06:35:48;;;;;;;10.90;2.67;;;;;;;4.97;100.00;103727.75;6201325;22;20319;-84
2023/12/16 06:38:14;;;;;;;15.27;2.43;;;;;;;4.97;100.00;103735.81;6278214;22;20014;-83
2023/12/16 06:40:39;;;;;;;20.42;3.97;;;;;;;4.97;100.00;103733.13;6251792;22;20094;-83
2023/12/16 06:43:04;;;;;;;13.10;3.27;;;;;;;4.92;100.00;103724.53;6277948;22;20011;-83
2023/12/16 06:45:31;;;;;;;17.00;2.77;;;;;;;4.92;100.00;103719.16;6225905;22;20012;-83
2023/12/16 06:47:57;;;;;;;15.38;2.65;;;;;;;4.89;100.00;103724.75;6226034;22;20089;-83
2023/12/16 06:50:23;;;;;;;12.88;2.80;;;;;;;4.95;100.00;103720.78;6251553;22;20485;-83
2023/12/16 06:52:51;;;;;;;13.02;3.03;;;;;;;4.89;100.00;103728.28;6251715;22;20020;-83
2023/12/16 06:55:17;;;;;;;15.90;2.50;;;;;;;4.93;100.00;103723.53;6250998;22;20012;-83
2023/12/16 06:57:44;;;;;;;12.93;3.00;;;;;;;4.91;100.00;103728.19;6278175;22;20046;-84
2023/12/16 07:00:10;;;;;;;16.17;3.50;;;;;;;4.91;100.00;103736.25;6226024;22;20023;-83
2023/12/16 07:02:36;;;;;;;13.80;3.03;;;;;;;4.88;100.00;103742.69;6225876;22;20035;-83
2023/12/16 07:05:02;;;;;;;13.32;2.55;;;;;;;4.87;100.00;103732.03;6251572;22;20448;-82
2023/12/16 07:07:28;;;;;;;12.25;2.70;;;;;;;4.81;100.00;103738.72;6225818;22;20102;-83
2023/12/16 07:09:53;;;;;;;18.73;3.33;;;;;;;4.77;100.00;103737.22;6225870;22;20004;-84
2023/12/16 07:12:19;;;;;;;17.58;3.28;;;;;;;4.79;100.00;103734.44;6251195;22;20022;-83
2023/12/16 07:14:44;;;;;;;16.27;3.73;;;;;;;4.79;100.00;103742.50;6226128;22;20434;-83
2023/12/16 07:17:10;;;;;;;12.77;3.50;;;;;;;4.74;100.00;103749.03;6251078;22;20015;-85
2023/12/16 07:19:35;;;;;;;12.38;2.75;;;;;;;4.73;100.00;103752.69;6225675;22;20011;-83
2023/12/16 07:22:02;;;;;;;13.73;2.70;;;;;;;4.71;100.00;103745.69;6250764;22;20004;-83
2023/12/16 07:24:27;;;;;;;20.10;2.78;;;;;;;4.74;100.00;103753.56;6277798;22;19999;-83
2023/12/16 07:26:55;;;;;;;16.47;2.20;;;;;;;4.71;100.00;103745.69;6277930;22;20004;-85
2023/12/16 07:29:20;;;;;;;18.55;3.10;;;;;;;4.72;100.00;103750.09;6251283;22;20442;-83
2023/12/16 07:31:47;;;;;;;18.23;3.10;;;;;;;4.74;100.00;103754.44;6277641;22;20071;-84
2023/12/16 07:34:12;;;;;;;9.48;2.40;;;;;;;4.69;100.00;103758.41;6225459;22;20496;-83
2023/12/16 07:36:38;;;;;;;9.50;2.40;;;;;;;4.67;100.00;103766.56;6225248;22;20019;-83
2023/12/16 07:39:03;;;;;;;12.45;2.83;;;;;;;4.64;100.00;103768.63;6200278;22;20020;-83
2023/12/16 07:41:29;;;;;;;14.43;3.20;;;;;;;4.63;100.00;103770.44;6225070;22;20008;-83
2023/12/16 07:43:54;;;;;;;15.30;2.97;;;;;;;4.64;100.00;103772.16;6250518;22;20016;-83
2023/12/16 07:46:20;;;;;;;13.00;3.00;;;;;;;4.66;100.00;103759.47;6250528;22;20369;-82
2023/12/16 07:48:45;;;;;;;13.23;2.90;;;;;;;4.69;100.00;103763.78;6250547;22;20039;-82
2023/12/16 07:51:18;;;;;;;13.50;2.40;;;;;;;4.72;100.00;103771.63;6200200;22;20015;-83
2023/12/16 07:53:46;;;;;;;10.20;2.92;;;;;;;4.74;100.00;103758.97;6225260;22;20012;-83
2023/12/16 07:56:23;;;;;;;14.25;2.75;;;;;;;4.76;100.00;103766.91;6225426;22;20392;-83
2023/12/16 07:58:50;;;;;;;13.57;3.13;;;;;;;4.87;100.00;103764.31;6250999;22;20039;-82
2023/12/16 08:01:17;;;;;;;15.48;3.08;;;;;;;4.82;100.00;103767.34;6250315;22;20441;-83
2023/12/16 08:03:44;;;;;;;9.82;2.50;;;;;;;4.83;100.00;103774.47;6224997;22;20038;-83
2023/12/16 08:06:09;;;;;;;9.32;2.05;;;;;;;4.88;100.00;103776.81;6277666;22;20077;-83
2023/12/16 08:08:39;;;;;;;10.93;2.17;;;;;;;4.85;100.00;103771.66;6250933;22;20011;-83
2023/12/16 08:11:05;;;;;;;13.13;2.75;;;;;;;4.85;100.00;103780.59;6251063;22;20014;-84
2023/12/16 08:13:31;;;;;;;15.25;2.45;;;;;;;4.90;100.00;103777.56;6225253;22;20018;-83
2023/12/16 08:15:56;;;;;;;13.48;2.33;;;;;;;4.91;100.00;103780.16;6251314;22;20035;-85
2023/12/16 08:18:22;;;;;;;13.05;2.35;;;;;;;4.95;100.00;103788.91;6250038;22;20025;-84
2023/12/16 08:20:48;;;;;;;13.27;2.70;;;;;;;5.00;100.00;103793.94;6199933;22;20007;-84
2023/12/16 08:23:13;;;;;;;10.93;2.83;;;;;;;5.03;100.00;103789.19;6277212;22;20018;-84
2023/12/16 08:25:39;;;;;;;16.80;2.97;;;;;;;5.06;100.00;103786.31;6249667;22;20417;-85
2023/12/16 08:28:04;;;;;;;9.82;2.40;;;;;;;5.07;100.00;103790.72;6224182;22;20008;-84
2023/12/16 08:30:30;;;;;;;14.93;2.73;;;;;;;5.13;100.00;103794.81;6225730;22;20015;-84
2023/12/16 08:32:55;;;;;;;13.27;2.43;;;;;;;5.24;100.00;103797.63;6225075;22;20032;-84
2023/12/16 08:35:20;;;;;;;12.40;2.50;;;;;;;5.35;100.00;103796.00;6249527;22;20337;-83
2023/12/16 08:37:46;;;;;;;16.75;3.17;;;;;;;5.45;100.00;103802.47;6224566;22;20249;-84
2023/12/16 08:40:12;;;;;;;14.13;2.60;;;;;;;5.56;100.00;103804.38;6225056;22;20019;-84
2023/12/16 08:42:42;;;;;;;10.17;2.10;;;;;;;5.75;100.00;103791.31;6250379;22;20062;-83
2023/12/16 08:45:08;;;;;;;17.92;2.28;;;;;;;5.86;100.00;103800.44;6249943;22;20008;-84
2023/12/16 08:47:34;;;;;;;11.10;2.65;;;;;;;5.96;100.00;103797.00;6225845;22;20011;-83
2023/12/16 08:49:59;;;;;;;13.83;2.67;;;;;;;6.04;100.00;103799.16;6224307;22;20489;-83
2023/12/16 08:52:26;;;;;;;15.30;3.27;;;;;;;6.13;100.00;103793.06;6250329;22;20377;-83
2023/12/16 08:54:52;;;;;;;12.63;2.80;;;;;;;6.19;100.00;103805.25;6250162;22;20042;-83
2023/12/16 08:57:17;;;;;;;15.53;3.27;;;;;;;6.25;100.00;103790.44;6200867;22;20019;-84
2023/12/16 08:59:43;;;;;;;13.38;3.08;;;;;;;6.28;100.00;103785.66;6224379;22;20008;-83
2023/12/16 09:02:08;;;;;;;15.73;2.57;;;;;;;6.34;100.00;103778.97;6251635;22;20313;-84
2023/12/16 09:04:34;;;;;;;17.20;2.87;;;;;;;6.38;100.00;103779.56;6224702;22;20039;-85
2023/12/16 09:07:02;;;;;;;13.40;2.60;;;;;;;6.43;100.00;103786.34;6250378;22;20003;-85
2023/12/16 09:09:27;;;;;;;19.25;3.38;;;;;;;6.50;100.00;103806.50;6200566;22;20039;-85
2023/12/16 09:11:53;;;;;;;14.07;2.87;;;;;;;6.58;100.00;103808.59;6225145;22;20326;-84
2023/12/16 09:14:19;;;;;;;11.15;2.42;;;;;;;6.63;100.00;103803.72;6249999;22;20246;-85
2023/12/16 09:16:44;;;;;;;15.63;3.10;;;;;;;6.71;100.00;103799.59;6250173;22;20426;-85
2023/12/16 09:19:11;;;;;;;16.42;2.63;;;;;;;6.74;100.00;103802.91;6250179;22;20437;-85
2023/12/16 09:21:37;;;;;;;13.00;2.42;;;;;;;6.80;100.00;103813.22;6276787;22;20008;-85
2023/12/16 09:24:04;;;;;;;19.00;2.67;;;;;;;6.82;100.00;103794.22;6276739;22;20000;-85
2023/12/16 09:26:30;;;;;;;10.90;2.33;;;;;;;6.87;100.00;103805.53;6249587;22;20421;-85
2023/12/16 09:28:55;;;;;;;21.07;4.13;;;;;;;6.96;100.00;103812.06;6224800;22;20023;-83
2023/12/16 09:31:21;;;;;;;12.40;2.60;;;;;;;6.99;100.00;103807.25;6249809;22;20112;-85
2023/12/16 09:33:46;;;;;;;14.20;2.60;;;;;;;7.05;100.00;103811.34;6224801;22;20329;-85
2023/12/16 09:36:15;;;;;;;16.07;2.70;;;;;;;7.08;100.00;103812.94;6225048;22;20031;-85
2023/12/16 09:38:40;;;;;;;16.00;2.90;;;;;;;7.13;100.00;103818.81;6250610;22;20020;-85
2023/12/16 09:41:20;;;;;;;14.73;3.10;;;;;;;7.18;100.00;103830.16;6249759;22;20422;-85
2023/12/16 09:43:52;;;;;;;15.88;3.22;;;;;;;7.28;100.00;103825.75;6277156;22;20007;-85
2023/12/16 09:46:27;;;;;;;12.75;2.60;;;;;;;7.25;100.00;103820.59;6277143;22;20057;-85
2023/12/16 09:48:53;;;;;;;14.73;3.20;;;;;;;7.28;100.00;103819.47;6276512;22;20004;-84
2023/12/16 09:51:20;;;;;;;13.30;2.40;;;;;;;7.32;100.00;103813.72;6249812;22;20442;-85
2023/12/16 09:53:45;;;;;;;11.93;2.83;;;;;;;7.36;100.00;103825.13;6276530;22;20306;-85
2023/12/16 09:56:12;;;;;;;10.02;2.67;;;;;;;7.38;100.00;103850.16;6200046;22;20016;-84
2023/12/16 09:58:42;;;;;;;12.60;3.37;;;;;;;7.41;100.00;103822.94;6278376;22;20375;-84
2023/12/16 10:01:09;;;;;;;17.90;2.70;;;;;;;7.45;100.00;103827.09;6278231;22;20008;-85
2023/12/16 10:03:39;;;;;;;13.93;2.80;;;;;;;7.53;100.00;103838.16;6251453;22;20008;-86
2023/12/16 10:06:09;;;;;;;15.13;3.33;;;;;;;7.57;100.00;103836.06;6251482;22;20388;-86
2023/12/16 10:08:36;;;;;;;16.85;3.50;;;;;;;7.62;100.00;103831.19;6250601;22;20008;-85
2023/12/16 10:11:04;;;;;;;8.33;2.50;;;;;;;7.64;100.00;103831.06;6251095;22;20012;-85
2023/12/16 10:13:34;;;;;;;15.27;2.88;;;;;;;7.67;100.00;103838.91;6252102;22;20026;-85
2023/12/16 10:16:00;;;;;;;13.60;2.83;;;;;;;7.71;100.00;103845.78;6278806;22;20061;-85
2023/12/16 10:18:27;;;;;;;16.42;2.88;;;;;;;7.71;100.00;103840.38;6251309;22;20008;-85
2023/12/16 10:20:55;;;;;;;21.73;3.65;;;;;;;7.78;100.00;103838.03;6250584;22;20008;-85
2023/12/16 10:23:22;;;;;;;19.90;3.90;;;;;;;7.79;100.00;103839.75;6250897;22;20020;-86
2023/12/16 10:25:47;;;;;;;15.75;3.42;;;;;;;7.82;100.00;103840.38;6250755;22;20014;-85
2023/12/16 10:28:13;;;;;;;12.67;3.63;;;;;;;7.82;100.00;103837.66;6226013;22;20023;-85
2023/12/16 10:30:38;;;;;;;16.13;3.90;;;;;;;7.85;100.00;103845.56;6250758;22;20015;-85
2023/12/16 10:33:08;;;;;;;16.87;3.30;;;;;;;7.86;100.00;103841.84;6225917;22;20004;-85
2023/12/16 10:35:37;;;;;;;19.88;4.72;;;;;;;7.92;100.00;103837.78;6250576;22;20020;-85
2023/12/16 10:38:04;;;;;;;20.30;3.97;;;;;;;7.96;100.00;103841.09;6251263;22;20081;-85
2023/12/16 10:40:31;;;;;;;16.08;3.63;;;;;;;8.00;100.00;103835.34;6278964;22;20058;-85
2023/12/16 10:42:57;;;;;;;15.70;4.00;;;;;;;8.03;100.00;103829.66;6250745;22;20065;-85
2023/12/16 10:45:23;;;;;;;15.57;3.92;;;;;;;8.03;100.00;103829.66;6278100;22;20003;-86
2023/12/16 10:47:52;;;;;;;14.70;4.07;;;;;;;8.04;100.00;103830.53;6250718;22;20030;-85
2023/12/16 10:50:20;;;;;;;19.77;3.90;;;;;;;8.07;100.00;103820.34;6250964;22;20012;-85
2023/12/16 10:52:55;;;;;;;19.05;4.10;;;;;;;8.07;100.00;103827.56;6278105;22;20004;-85
2023/12/16 10:55:27;;;;;;;17.60;4.10;;;;;;;8.06;100.00;103826.72;6250579;22;20087;-85
2023/12/16 10:58:23;;;;;;;13.18;3.72;;;;;;;8.12;100.00;103830.75;6251413;22;20007;-85
2023/12/16 11:00:52;;;;;;;14.75;3.50;;;;;;;8.14;100.00;103815.25;6251414;22;20019;-85
2023/12/16 11:03:23;;;;;;;17.70;4.15;;;;;;;8.10;100.00;103808.38;6276338;22;20043;-85
2023/12/16 11:05:55;;;;;;;14.70;3.47;;;;;;;8.15;100.00;103818.81;6250643;22;20038;-85
2023/12/16 11:08:24;;;;;;;19.92;4.18;;;;;;;8.13;100.00;103812.69;6250692;22;20299;-86
2023/12/16 11:10:50;;;;;;;16.95;3.80;;;;;;;8.18;100.00;103819.44;6251694;22;20062;-85
2023/12/16 11:13:16;;;;;;;18.80;4.20;;;;;;;8.14;100.00;103812.56;6278667;22;20333;-85